Time;durP1;ratioP1;P1;durP2;ratioP2;P2;SDS_P1;SDS_P2;PMS_P1;PMS_P2;Temp;Humidity;BMP_temperature;BMP_pressure;BME280_temperature;BME280_humidity;BME280_pressure;Samples;Min_cycle;Max_cycle;Signal;HPM_P1;HPM_P2
2021/04/30 00:01:58;;;;;;;5.30;4.70;;;16.70;41.50;;;;;;5044097;28;20211;-44
2021/04/30 00:04:24;;;;;;;5.23;4.73;;;16.70;41.50;;;;;;5042002;28;21239;-44
2021/04/30 00:06:49;;;;;;;5.53;5.07;;;16.60;41.50;;;;;;5044061;28;20199;-42
2021/04/30 00:09:15;;;;;;;6.60;4.90;;;16.60;41.60;;;;;;5042732;28;20735;-42
2021/04/30 00:11:40;;;;;;;5.17;4.73;;;16.50;42.00;;;;;;5043626;28;20277;-42
2021/04/30 00:14:06;;;;;;;5.60;3.93;;;16.50;42.20;;;;;;5045711;28;20193;-42
2021/04/30 00:16:32;;;;;;;4.70;4.40;;;16.40;42.30;;;;;;5049516;28;20247;-46
2021/04/30 00:18:57;;;;;;;5.23;4.70;;;16.40;42.40;;;;;;5042705;28;20680;-43
2021/04/30 00:21:23;;;;;;;5.80;5.30;;;16.30;42.40;;;;;;5037789;28;20259;-43
2021/04/30 00:23:49;;;;;;;4.77;4.40;;;16.30;42.60;;;;;;5044252;28;20587;-44
2021/04/30 00:26:14;;;;;;;4.73;4.33;;;16.20;42.80;;;;;;5043400;28;20238;-44
2021/04/30 00:28:40;;;;;;;5.73;5.23;;;16.20;42.80;;;;;;5041890;28;20236;-42
2021/04/30 00:31:05;;;;;;;8.30;5.30;;;16.10;43.00;;;;;;5048306;28;20208;-43
2021/04/30 00:33:31;;;;;;;5.40;4.90;;;16.00;43.10;;;;;;5042082;28;20224;-44
2021/04/30 00:35:57;;;;;;;5.33;4.83;;;16.00;43.20;;;;;;5045382;28;20307;-44
2021/04/30 00:38:23;;;;;;;5.27;4.87;;;16.00;43.40;;;;;;5040982;28;20247;-42
2021/04/30 00:40:50;;;;;;;5.07;4.63;;;15.90;43.60;;;;;;5048956;28;20450;-43
2021/04/30 00:43:16;;;;;;;5.00;4.60;;;15.90;43.80;;;;;;5045803;28;20439;-43
2021/04/30 00:45:42;;;;;;;5.00;4.57;;;15.80;44.10;;;;;;5048747;28;20435;-42
2021/04/30 00:48:11;;;;;;;6.63;5.60;;;15.70;44.30;;;;;;5044186;28;20563;-42
2021/04/30 00:50:37;;;;;;;5.40;4.90;;;15.60;44.50;;;;;;5042261;28;20569;-42
2021/04/30 00:53:03;;;;;;;6.03;5.40;;;15.60;44.50;;;;;;5041384;28;20431;-43
2021/04/30 00:55:29;;;;;;;6.83;5.23;;;15.60;44.60;;;;;;5047414;28;20505;-42
2021/04/30 00:57:57;;;;;;;6.37;5.40;;;15.60;44.50;;;;;;5041192;28;20443;-44
2021/04/30 01:00:25;;;;;;;6.70;5.40;;;15.60;44.50;;;;;;5046244;28;20193;-42
2021/04/30 01:02:51;;;;;;;7.17;5.63;;;15.70;44.70;;;;;;5048379;28;20439;-43
2021/04/30 01:05:18;;;;;;;4.50;4.10;;;15.60;44.70;;;;;;5046970;28;20485;-42
2021/04/30 01:07:43;;;;;;;5.57;5.00;;;15.60;44.90;;;;;;5043528;28;20221;-43
2021/04/30 01:10:10;;;;;;;6.53;5.80;;;15.50;45.00;;;;;;5030188;28;20458;-42
2021/04/30 01:12:35;;;;;;;6.37;5.30;;;15.50;45.10;;;;;;5039275;28;20215;-45
2021/04/30 01:15:01;;;;;;;6.17;5.67;;;15.50;45.20;;;;;;5050248;28;20439;-42
2021/04/30 01:17:28;;;;;;;5.23;4.73;;;15.50;45.20;;;;;;5045168;28;20214;-42
2021/04/30 01:19:58;;;;;;;5.30;4.80;;;15.50;45.30;;;;;;5049113;28;20449;-42
2021/04/30 01:22:39;;;;;;;5.47;5.00;;;15.50;45.20;;;;;;5045201;28;20446;-42
2021/04/30 01:25:07;;;;;;;5.10;4.70;;;15.50;45.20;;;;;;5049357;28;20508;-42
2021/04/30 01:27:33;;;;;;;5.63;4.97;;;15.40;45.10;;;;;;5043801;28;20463;-45
2021/04/30 01:29:59;;;;;;;4.87;4.50;;;15.40;45.10;;;;;;5046230;28;20791;-42
2021/04/30 01:32:25;;;;;;;4.97;4.53;;;15.40;45.20;;;;;;5032178;28;20605;-42
2021/04/30 01:34:51;;;;;;;5.87;5.07;;;15.30;45.10;;;;;;5045237;28;20555;-44
2021/04/30 01:37:17;;;;;;;5.53;4.60;;;15.30;45.20;;;;;;5040506;28;20198;-42
2021/04/30 01:39:42;;;;;;;5.63;4.70;;;15.30;45.00;;;;;;5044311;28;20518;-44
2021/04/30 01:42:08;;;;;;;5.40;5.00;;;15.30;45.00;;;;;;5041734;28;20275;-42
2021/04/30 01:44:34;;;;;;;5.93;5.37;;;15.30;44.90;;;;;;5047966;28;20199;-42
2021/04/30 01:47:01;;;;;;;7.67;5.50;;;15.30;45.20;;;;;;5045202;28;20220;-43
2021/04/30 01:49:26;;;;;;;6.57;5.93;;;15.30;44.80;;;;;;5047260;28;20486;-42
2021/04/30 01:51:53;;;;;;;6.83;6.23;;;15.30;44.80;;;;;;5044251;28;20451;-42
2021/04/30 01:54:20;;;;;;;6.60;6.03;;;15.30;44.70;;;;;;5034080;28;20201;-43
2021/04/30 01:56:45;;;;;;;6.67;6.07;;;15.20;44.40;;;;;;5045326;28;20492;-43
2021/04/30 01:59:11;;;;;;;6.13;5.60;;;15.20;44.40;;;;;;5043335;28;20427;-43
2021/04/30 02:01:37;;;;;;;6.63;6.03;;;15.20;44.50;;;;;;5042276;28;20824;-43
2021/04/30 02:04:07;;;;;;;5.70;5.10;;;15.20;45.00;;;;;;5043234;28;20189;-42
2021/04/30 02:06:33;;;;;;;6.40;5.80;;;15.20;45.20;;;;;;5044696;28;20197;-43
2021/04/30 02:08:59;;;;;;;6.40;5.90;;;15.20;45.10;;;;;;5047717;28;20483;-45
2021/04/30 02:11:24;;;;;;;6.47;5.97;;;15.20;44.50;;;;;;5050570;28;20446;-42
2021/04/30 02:13:50;;;;;;;6.80;6.20;;;15.30;44.30;;;;;;5048842;28;20203;-42
2021/04/30 02:16:16;;;;;;;6.93;6.27;;;15.30;44.60;;;;;;5050831;28;20214;-43
2021/04/30 02:18:41;;;;;;;8.30;6.57;;;15.20;45.00;;;;;;5053219;28;20200;-42
2021/04/30 02:21:07;;;;;;;7.30;6.40;;;15.20;44.80;;;;;;5052395;28;20648;-42
2021/04/30 02:23:32;;;;;;;6.17;5.67;;;15.20;44.60;;;;;;5043375;28;20204;-42
2021/04/30 02:25:58;;;;;;;7.30;6.60;;;15.20;44.50;;;;;;5044097;28;20306;-42
2021/04/30 02:28:24;;;;;;;7.40;6.23;;;15.20;44.40;;;;;;5044403;28;20314;-42
2021/04/30 02:30:49;;;;;;;6.50;5.90;;;15.20;44.30;;;;;;5044879;28;20319;-43
2021/04/30 02:33:15;;;;;;;8.43;6.80;;;15.20;44.40;;;;;;5047113;28;20204;-42
2021/04/30 02:35:41;;;;;;;6.87;6.27;;;15.20;44.60;;;;;;5048225;28;20263;-42
2021/04/30 02:38:12;;;;;;;7.30;6.70;;;15.20;44.70;;;;;;5050378;28;20203;-42
2021/04/30 02:40:39;;;;;;;7.07;6.40;;;15.20;44.80;;;;;;5046538;28;20916;-42
2021/04/30 02:43:08;;;;;;;7.60;7.00;;;15.10;45.40;;;;;;5047195;28;20447;-43
2021/04/30 02:45:34;;;;;;;8.03;6.40;;;15.10;46.30;;;;;;5048176;28;20501;-42
2021/04/30 02:48:00;;;;;;;6.77;6.17;;;15.10;46.70;;;;;;5051076;28;20481;-44
2021/04/30 02:50:29;;;;;;;8.13;7.40;;;15.10;47.10;;;;;;5040361;28;20655;-42
2021/04/30 02:52:56;;;;;;;7.93;6.77;;;15.00;47.00;;;;;;5046272;28;20495;-43
2021/04/30 02:55:23;;;;;;;7.70;7.00;;;15.00;47.30;;;;;;5048138;28;20922;-43
2021/04/30 02:57:50;;;;;;;8.80;7.13;;;15.00;48.20;;;;;;5048158;28;20443;-42
2021/04/30 03:00:16;;;;;;;7.50;6.77;;;15.00;48.60;;;;;;5044752;28;20443;-44
2021/04/30 03:02:42;;;;;;;7.47;6.80;;;15.00;48.70;;;;;;5047049;28;20471;-43
2021/04/30 03:05:08;;;;;;;6.80;6.20;;;15.00;48.50;;;;;;5047163;28;20523;-43
2021/04/30 03:07:34;;;;;;;7.87;7.10;;;14.90;48.50;;;;;;5046040;28;20220;-42
2021/04/30 03:09:59;;;;;;;7.73;7.03;;;14.90;48.40;;;;;;5049068;28;20680;-42
2021/04/30 03:12:25;;;;;;;7.17;6.57;;;14.90;48.80;;;;;;5047732;28;20698;-44
2021/04/30 03:14:50;;;;;;;7.17;6.40;;;14.90;49.00;;;;;;5044076;28;20656;-42
2021/04/30 03:17:16;;;;;;;7.20;6.60;;;14.80;49.10;;;;;;5049548;28;20266;-42
2021/04/30 03:19:42;;;;;;;7.77;7.00;;;14.80;49.00;;;;;;5048221;28;20568;-42
2021/04/30 03:22:07;;;;;;;7.40;6.70;;;14.70;48.90;;;;;;5037111;28;20196;-42
2021/04/30 03:24:33;;;;;;;7.20;6.50;;;14.70;48.90;;;;;;5050147;28;20275;-44
2021/04/30 03:26:59;;;;;;;8.23;7.20;;;14.70;48.90;;;;;;5048733;28;20193;-43
2021/04/30 03:29:24;;;;;;;7.67;6.97;;;14.70;48.70;;;;;;5048371;28;20254;-43
2021/04/30 03:31:50;;;;;;;7.67;6.90;;;14.70;48.00;;;;;;5043448;28;20204;-43
2021/04/30 03:34:16;;;;;;;8.17;7.37;;;14.70;47.70;;;;;;5045427;28;20207;-43
2021/04/30 03:36:41;;;;;;;7.60;6.90;;;14.70;47.60;;;;;;5047523;28;20235;-47
2021/04/30 03:39:08;;;;;;;8.83;6.90;;;14.70;47.50;;;;;;5050192;28;20196;-43
2021/04/30 03:41:35;;;;;;;8.47;7.70;;;14.70;47.70;;;;;;5043899;28;20197;-43
2021/04/30 03:44:00;;;;;;;8.90;7.53;;;14.70;48.00;;;;;;5047014;28;20447;-44
2021/04/30 03:46:26;;;;;;;8.27;6.90;;;14.80;48.30;;;;;;5050692;28;20535;-46
2021/04/30 03:48:52;;;;;;;7.97;7.20;;;14.70;48.40;;;;;;5048977;28;20259;-45
2021/04/30 03:51:18;;;;;;;10.30;7.37;;;14.70;48.60;;;;;;5040073;28;20192;-42
2021/04/30 03:53:44;;;;;;;9.33;7.27;;;14.70;49.00;;;;;;5047960;28;20658;-43
2021/04/30 03:56:10;;;;;;;7.80;7.10;;;14.70;49.30;;;;;;5051044;28;20447;-43
2021/04/30 03:58:35;;;;;;;8.20;7.40;;;14.70;49.50;;;;;;5046489;28;20201;-42
2021/04/30 04:01:01;;;;;;;8.97;8.00;;;14.70;49.40;;;;;;5042290;28;20204;-42
2021/04/30 04:03:26;;;;;;;8.53;7.77;;;14.60;49.10;;;;;;5047593;28;20185;-42
2021/04/30 04:05:52;;;;;;;8.33;7.53;;;14.60;49.10;;;;;;5048242;28;20197;-43
2021/04/30 04:08:18;;;;;;;8.80;8.00;;;14.60;49.20;;;;;;5049833;28;20232;-42
2021/04/30 04:10:43;;;;;;;9.37;8.57;;;14.60;49.20;;;;;;5051154;28;20197;-42
2021/04/30 04:13:22;;;;;;;9.50;8.50;;;14.60;49.10;;;;;;5043861;28;20193;-43
2021/04/30 04:15:49;;;;;;;8.60;7.80;;;14.50;49.00;;;;;;5036591;28;20553;-42
2021/04/30 04:18:16;;;;;;;8.73;7.90;;;14.60;48.70;;;;;;5042309;28;20447;-42
2021/04/30 04:20:42;;;;;;;9.03;8.13;;;14.50;48.10;;;;;;5045345;28;20439;-44
2021/04/30 04:23:09;;;;;;;9.23;8.33;;;14.50;47.60;;;;;;5048317;28;20442;-42
2021/04/30 04:25:35;;;;;;;8.63;7.73;;;14.50;47.30;;;;;;5048400;28;20492;-44
2021/04/30 04:28:01;;;;;;;9.73;8.87;;;14.50;47.70;;;;;;5040125;28;20493;-43
2021/04/30 04:30:27;;;;;;;8.77;7.90;;;14.50;47.20;;;;;;5048499;28;21060;-43
2021/04/30 04:32:53;;;;;;;10.13;8.70;;;14.50;47.30;;;;;;5045576;28;20188;-42
2021/04/30 04:35:19;;;;;;;9.37;8.50;;;14.50;47.30;;;;;;5042775;28;20852;-42
2021/04/30 04:37:45;;;;;;;10.13;9.17;;;14.50;47.40;;;;;;5048092;28;20438;-42
2021/04/30 04:40:12;;;;;;;10.50;9.50;;;14.40;47.30;;;;;;5048439;28;20439;-43
2021/04/30 04:42:39;;;;;;;11.00;9.50;;;14.40;47.40;;;;;;5041369;28;20267;-43
2021/04/30 04:45:06;;;;;;;10.17;8.80;;;14.40;47.40;;;;;;5041370;28;20488;-42
2021/04/30 04:47:31;;;;;;;12.20;9.40;;;14.40;47.10;;;;;;5040445;28;20575;-43
2021/04/30 04:49:57;;;;;;;10.63;9.63;;;14.40;47.20;;;;;;5042856;28;20546;-42
2021/04/30 04:52:23;;;;;;;10.63;9.53;;;14.40;47.30;;;;;;5039185;28;20204;-42
2021/04/30 04:54:48;;;;;;;10.70;9.60;;;14.40;47.20;;;;;;5038106;28;20214;-44
2021/04/30 04:57:14;;;;;;;10.40;9.40;;;14.40;46.90;;;;;;5043265;28;20200;-42
2021/04/30 04:59:39;;;;;;;12.53;10.00;;;14.40;46.80;;;;;;5047085;28;20197;-42
2021/04/30 05:02:05;;;;;;;11.50;10.30;;;14.40;47.00;;;;;;5043228;28;20193;-42
2021/04/30 05:04:30;;;;;;;11.07;10.00;;;14.50;46.80;;;;;;5042585;28;20652;-42
2021/04/30 05:06:56;;;;;;;10.30;9.23;;;14.50;46.80;;;;;;5045596;28;20197;-42
2021/04/30 05:09:22;;;;;;;10.00;9.10;;;14.50;47.10;;;;;;5040553;28;20232;-42
2021/04/30 05:11:48;;;;;;;10.90;9.90;;;14.50;47.10;;;;;;5045966;28;20644;-41
2021/04/30 05:14:13;;;;;;;9.33;8.43;;;14.50;46.80;;;;;;5044933;28;20438;-41
2021/04/30 05:16:39;;;;;;;10.03;8.60;;;14.60;46.80;;;;;;5046056;28;20200;-41
2021/04/30 05:19:05;;;;;;;10.27;9.27;;;14.60;46.40;;;;;;5044506;28;20541;-41
2021/04/30 05:21:32;;;;;;;10.03;9.03;;;14.70;46.20;;;;;;5044984;28;20192;-42
2021/04/30 05:23:59;;;;;;;9.50;8.60;;;14.80;45.90;;;;;;5045047;28;20884;-41
2021/04/30 05:26:28;;;;;;;11.03;9.93;;;14.80;45.60;;;;;;5043782;28;20486;-41
2021/04/30 05:28:55;;;;;;;9.10;8.20;;;14.90;45.90;;;;;;5045609;28;20480;-42
2021/04/30 05:31:21;;;;;;;10.23;8.47;;;14.90;46.20;;;;;;5041330;28;20431;-41
2021/04/30 05:33:46;;;;;;;10.03;9.13;;;15.00;45.90;;;;;;5044820;28;20442;-43
2021/04/30 05:36:12;;;;;;;10.37;8.90;;;15.10;45.80;;;;;;5041878;28;20232;-42
2021/04/30 05:38:37;;;;;;;9.00;8.20;;;15.20;45.70;;;;;;5050722;28;20188;-41
2021/04/30 05:41:03;;;;;;;9.40;8.60;;;15.30;45.40;;;;;;5042441;28;20220;-42
2021/04/30 05:43:29;;;;;;;9.17;8.30;;;15.30;44.80;;;;;;5038818;28;20181;-42
2021/04/30 05:45:54;;;;;;;10.00;9.07;;;15.30;44.70;;;;;;5053581;28;20270;-43
2021/04/30 05:48:20;;;;;;;9.60;8.70;;;15.30;44.60;;;;;;5051906;28;20220;-41
2021/04/30 05:50:45;;;;;;;10.33;9.20;;;15.40;44.60;;;;;;5053761;28;20201;-41
2021/04/30 05:53:11;;;;;;;11.57;9.40;;;15.40;44.40;;;;;;5053220;28;20185;-41
2021/04/30 05:55:37;;;;;;;9.70;8.80;;;15.50;44.30;;;;;;5054118;28;20248;-42
2021/04/30 05:58:02;;;;;;;9.20;8.20;;;15.50;44.20;;;;;;5048336;28;20225;-41
2021/04/30 06:00:28;;;;;;;9.90;9.00;;;15.60;44.30;;;;;;5041468;28;20532;-41
2021/04/30 06:02:54;;;;;;;10.47;9.57;;;15.60;43.80;;;;;;5047060;28;20197;-43
2021/04/30 06:05:20;;;;;;;9.17;7.97;;;15.80;43.70;;;;;;5050896;28;20209;-42
2021/04/30 06:07:45;;;;;;;9.73;8.77;;;15.80;43.30;;;;;;5035692;28;20213;-42
2021/04/30 06:10:11;;;;;;;10.53;9.30;;;15.80;43.20;;;;;;5049565;28;20196;-42
2021/04/30 06:12:37;;;;;;;10.50;9.40;;;15.90;43.30;;;;;;5044665;28;20196;-41
2021/04/30 06:15:04;;;;;;;9.83;8.93;;;15.90;43.30;;;;;;5051785;28;20484;-42
2021/04/30 06:17:30;;;;;;;8.90;8.00;;;15.90;43.40;;;;;;5042096;28;20247;-42
2021/04/30 06:19:56;;;;;;;9.63;8.70;;;15.90;43.80;;;;;;5045416;28;20963;-41
2021/04/30 06:22:21;;;;;;;10.33;9.23;;;16.00;43.90;;;;;;5047042;28;20657;-41
2021/04/30 06:24:47;;;;;;;8.50;7.70;;;16.10;43.40;;;;;;5048192;28;20185;-42
2021/04/30 06:27:13;;;;;;;6.40;5.77;;;16.20;43.20;;;;;;5043334;28;20193;-42
2021/04/30 06:29:38;;;;;;;10.80;7.90;;;16.20;43.00;;;;;;5040104;28;20648;-42
2021/04/30 06:32:04;;;;;;;9.73;7.87;;;16.10;42.70;;;;;;5048216;28;20216;-42
2021/04/30 06:34:30;;;;;;;7.73;6.93;;;16.10;42.60;;;;;;5051190;28;20266;-43
2021/04/30 06:36:55;;;;;;;9.50;7.43;;;16.20;42.80;;;;;;5049834;28;20212;-42
2021/04/30 06:39:22;;;;;;;7.97;7.27;;;16.20;42.50;;;;;;5052491;28;20672;-42
2021/04/30 06:41:48;;;;;;;8.07;7.27;;;16.20;43.30;;;;;;5041745;28;20194;-43
2021/04/30 06:44:14;;;;;;;8.63;7.83;;;16.20;42.40;;;;;;5048965;28;20427;-42
2021/04/30 06:46:40;;;;;;;7.50;6.80;;;16.20;42.40;;;;;;5050598;28;20435;-42
2021/04/30 06:49:05;;;;;;;7.00;6.40;;;16.20;42.60;;;;;;5052272;28;20224;-42
2021/04/30 06:51:32;;;;;;;6.87;6.27;;;16.10;42.10;;;;;;5047555;28;20201;-41
2021/04/30 06:53:57;;;;;;;8.47;7.60;;;16.10;41.70;;;;;;5044628;28;20197;-42
2021/04/30 06:56:26;;;;;;;8.27;7.40;;;16.20;41.60;;;;;;5050020;28;20424;-43
2021/04/30 06:58:51;;;;;;;9.43;8.30;;;16.30;41.50;;;;;;5041356;28;20197;-41
2021/04/30 07:01:18;;;;;;;8.73;7.90;;;16.40;41.30;;;;;;5045228;28;20437;-42
2021/04/30 07:03:47;;;;;;;9.40;8.43;;;16.40;41.40;;;;;;5041654;28;20201;-42
2021/04/30 07:06:16;;;;;;;9.33;8.07;;;16.50;41.80;;;;;;5049846;28;20501;-42
2021/04/30 07:08:42;;;;;;;8.77;7.90;;;16.40;42.00;;;;;;5047594;28;20844;-42
2021/04/30 07:11:08;;;;;;;8.60;7.70;;;16.40;41.90;;;;;;5036135;28;21014;-41
2021/04/30 07:13:35;;;;;;;10.87;8.13;;;16.40;41.80;;;;;;5051049;28;20220;-42
2021/04/30 07:16:04;;;;;;;8.43;7.73;;;16.30;42.00;;;;;;5037773;28;20435;-42
2021/04/30 07:18:30;;;;;;;8.60;7.73;;;16.30;41.90;;;;;;5043089;28;20810;-41
2021/04/30 07:20:56;;;;;;;9.20;7.80;;;16.30;41.80;;;;;;5048298;28;20437;-41
2021/04/30 07:23:22;;;;;;;11.00;8.20;;;16.30;41.70;;;;;;5041410;28;20703;-41
2021/04/30 07:25:49;;;;;;;8.77;7.87;;;16.30;41.90;;;;;;5048166;28;20237;-42
2021/04/30 07:28:14;;;;;;;8.57;7.77;;;16.30;42.10;;;;;;5045655;28;20873;-41
2021/04/30 07:30:40;;;;;;;8.30;7.50;;;16.40;42.60;;;;;;5051576;28;20430;-41
2021/04/30 07:33:06;;;;;;;7.73;7.03;;;16.40;42.80;;;;;;5051341;28;20207;-42
2021/04/30 07:35:31;;;;;;;8.77;7.87;;;16.40;43.00;;;;;;5040169;28;20743;-42
2021/04/30 07:37:57;;;;;;;10.03;8.20;;;16.50;42.90;;;;;;5044478;28;20197;-42
2021/04/30 07:40:23;;;;;;;8.43;7.73;;;16.60;43.00;;;;;;5045939;28;20195;-41
2021/04/30 07:42:48;;;;;;;9.40;8.50;;;16.70;43.20;;;;;;5047800;28;20223;-42
2021/04/30 07:45:14;;;;;;;9.40;8.60;;;16.70;43.10;;;;;;5049792;28;20250;-43
2021/04/30 07:47:40;;;;;;;10.23;9.23;;;16.70;43.10;;;;;;5040738;28;20213;-42
2021/04/30 07:50:06;;;;;;;11.60;9.43;;;16.70;43.10;;;;;;5048916;28;20231;-41
2021/04/30 07:52:32;;;;;;;9.80;8.90;;;16.70;43.10;;;;;;5038508;28;20280;-41
2021/04/30 07:55:01;;;;;;;11.70;8.80;;;16.60;43.20;;;;;;5045802;28;20998;-42
2021/04/30 07:57:28;;;;;;;9.40;8.43;;;16.60;43.20;;;;;;5049533;28;20184;-43
2021/04/30 07:59:54;;;;;;;9.10;8.20;;;16.50;43.30;;;;;;5033937;28;20435;-41
2021/04/30 08:02:19;;;;;;;10.23;7.63;;;16.50;43.10;;;;;;5034631;28;20439;-42
2021/04/30 08:04:46;;;;;;;6.70;6.10;;;16.50;43.00;;;;;;5047091;28;20204;-42
2021/04/30 08:07:11;;;;;;;8.67;7.87;;;16.50;43.50;;;;;;5049579;28;20561;-41
2021/04/30 08:09:37;;;;;;;8.27;7.57;;;16.60;43.40;;;;;;5047224;28;20483;-42
2021/04/30 08:12:03;;;;;;;9.00;8.10;;;16.80;43.20;;;;;;5041395;28;20250;-42
2021/04/30 08:14:30;;;;;;;8.43;7.73;;;16.80;42.80;;;;;;5034652;28;20200;-41
2021/04/30 08:16:55;;;;;;;9.00;8.10;;;16.90;42.40;;;;;;5046804;28;20208;-44
2021/04/30 08:19:21;;;;;;;7.93;7.23;;;16.90;42.10;;;;;;5044446;28;20442;-41
2021/04/30 08:21:47;;;;;;;8.53;7.73;;;16.90;42.30;;;;;;5047964;28;20196;-43
2021/04/30 08:24:13;;;;;;;11.13;7.93;;;16.90;42.40;;;;;;5044109;28;20185;-42
2021/04/30 08:26:38;;;;;;;8.53;7.70;;;16.90;42.40;;;;;;5040450;28;20645;-43
2021/04/30 08:29:04;;;;;;;8.50;7.70;;;16.80;42.00;;;;;;5042805;28;20228;-42
2021/04/30 08:31:30;;;;;;;8.30;7.60;;;16.80;42.10;;;;;;5043847;28;20192;-42
2021/04/30 08:33:55;;;;;;;7.97;7.20;;;16.80;42.30;;;;;;5044038;28;20585;-42
2021/04/30 08:36:21;;;;;;;8.50;7.70;;;16.70;42.30;;;;;;5046623;28;20224;-43
2021/04/30 08:38:47;;;;;;;9.50;8.33;;;16.70;42.50;;;;;;5039992;28;20212;-42
2021/04/30 08:41:14;;;;;;;7.83;7.00;;;16.80;42.90;;;;;;5049508;28;20501;-45
2021/04/30 08:43:41;;;;;;;8.90;7.90;;;16.90;43.00;;;;;;5048118;28;20439;-44
2021/04/30 08:46:10;;;;;;;8.33;7.53;;;16.90;43.20;;;;;;5048367;28;20430;-44
2021/04/30 08:48:36;;;;;;;8.57;7.87;;;16.90;43.20;;;;;;5048854;28;20505;-45
2021/04/30 08:51:01;;;;;;;8.57;7.77;;;16.90;43.30;;;;;;5028411;28;20922;-43
2021/04/30 08:53:27;;;;;;;7.07;6.43;;;16.90;43.10;;;;;;5042064;28;20192;-41
2021/04/30 08:55:54;;;;;;;9.07;8.17;;;16.80;43.30;;;;;;5038877;28;20703;-43
2021/04/30 08:58:25;;;;;;;8.60;7.70;;;16.80;43.50;;;;;;5049504;28;20188;-42
2021/04/30 09:00:52;;;;;;;9.80;7.70;;;16.80;43.40;;;;;;5042120;28;20446;-42
2021/04/30 09:03:18;;;;;;;8.27;7.33;;;16.80;43.50;;;;;;5039866;28;20918;-42
2021/04/30 09:05:49;;;;;;;7.80;7.10;;;16.80;43.80;;;;;;5040579;28;20506;-42
2021/04/30 09:08:16;;;;;;;8.53;7.77;;;16.80;43.40;;;;;;5049906;28;20228;-42
2021/04/30 09:10:47;;;;;;;8.30;7.60;;;16.80;43.60;;;;;;5048127;28;20485;-42
2021/04/30 09:13:16;;;;;;;7.70;7.00;;;16.70;43.10;;;;;;5042715;28;20446;-44
2021/04/30 09:15:43;;;;;;;8.30;7.40;;;16.70;43.40;;;;;;5051351;28;20435;-45
2021/04/30 09:18:18;;;;;;;7.93;7.20;;;16.70;43.80;;;;;;5048895;28;20471;-43
2021/04/30 09:20:47;;;;;;;7.80;7.10;;;16.60;43.80;;;;;;5037836;28;20977;-43
2021/04/30 09:23:34;;;;;;;8.30;7.43;;;16.50;43.50;;;;;;5042202;28;20524;-41
2021/04/30 09:26:02;;;;;;;9.60;8.37;;;16.50;43.60;;;;;;5050329;28;20450;-43
2021/04/30 09:28:28;;;;;;;9.53;8.57;;;16.50;43.60;;;;;;5050884;28;20551;-42
2021/04/30 09:30:53;;;;;;;10.70;8.00;;;16.50;43.70;;;;;;5041260;28;22628;-42
2021/04/30 09:33:21;;;;;;;9.33;8.43;;;16.30;43.60;;;;;;5050234;28;20567;-48
2021/04/30 09:35:51;;;;;;;9.60;8.60;;;16.10;43.70;;;;;;5048371;28;20239;-43
2021/04/30 09:38:17;;;;;;;9.80;8.80;;;16.20;44.00;;;;;;5050822;28;20427;-42
2021/04/30 09:40:43;;;;;;;9.33;8.40;;;16.20;43.40;;;;;;5045275;28;20437;-42
2021/04/30 09:43:10;;;;;;;9.67;8.63;;;16.10;43.30;;;;;;5045172;28;20192;-42
2021/04/30 09:45:36;;;;;;;8.70;7.90;;;16.10;43.30;;;;;;5039404;28;20899;-44
2021/04/30 09:48:07;;;;;;;11.17;9.97;;;16.30;43.30;;;;;;5037170;28;20997;-41
2021/04/30 09:50:34;;;;;;;9.63;8.47;;;16.30;43.40;;;;;;5035173;28;20525;-41
2021/04/30 09:53:02;;;;;;;8.50;7.60;;;16.20;43.30;;;;;;5030036;28;20454;-41
2021/04/30 09:55:38;;;;;;;9.33;7.60;;;16.30;43.00;;;;;;5031156;28;20424;-43
2021/04/30 09:58:21;;;;;;;9.30;8.03;;;16.30;42.70;;;;;;5039136;28;20450;-42
2021/04/30 10:00:50;;;;;;;9.87;8.90;;;16.30;42.80;;;;;;5051141;28;20422;-42
2021/04/30 10:03:28;;;;;;;12.00;9.23;;;16.20;42.80;;;;;;5049525;28;20442;-41
2021/04/30 10:06:12;;;;;;;8.90;8.10;;;16.10;43.40;;;;;;5050471;28;20946;-42
2021/04/30 10:08:38;;;;;;;10.03;8.50;;;16.10;43.80;;;;;;5039353;28;20512;-43
2021/04/30 10:11:04;;;;;;;9.63;8.63;;;16.00;44.10;;;;;;5048555;28;20439;-41
2021/04/30 10:13:31;;;;;;;11.20;8.60;;;16.10;44.10;;;;;;5048514;28;20431;-43
2021/04/30 10:15:57;;;;;;;8.70;7.60;;;16.10;43.80;;;;;;5049055;28;20807;-41
2021/04/30 10:18:25;;;;;;;9.43;8.53;;;16.20;43.90;;;;;;5047500;28;20439;-41
2021/04/30 10:20:51;;;;;;;10.43;9.00;;;16.30;44.00;;;;;;5040722;28;20506;-41
2021/04/30 10:23:19;;;;;;;9.50;8.60;;;16.30;43.90;;;;;;5045284;28;20427;-43
2021/04/30 10:25:49;;;;;;;10.30;9.30;;;16.40;43.90;;;;;;5040951;28;20200;-41
2021/04/30 10:28:26;;;;;;;9.87;8.87;;;16.50;43.90;;;;;;5041767;28;20482;-41
2021/04/30 10:30:59;;;;;;;10.13;9.13;;;16.10;45.00;;;;;;5045210;28;20846;-42
2021/04/30 10:33:47;;;;;;;11.27;10.17;;;16.20;45.00;;;;;;5051328;28;20443;-41
2021/04/30 10:36:29;;;;;;;10.40;9.40;;;16.10;45.30;;;;;;5051068;28;20470;-41
2021/04/30 10:38:57;;;;;;;9.50;8.60;;;16.10;46.10;;;;;;5049401;28;20939;-43
2021/04/30 10:41:26;;;;;;;11.73;10.33;;;16.00;46.70;;;;;;5039122;28;20470;-43
2021/04/30 10:44:11;;;;;;;10.90;9.90;;;16.00;47.60;;;;;;5040411;28;20447;-41
2021/04/30 10:46:36;;;;;;;12.13;10.93;;;16.10;47.80;;;;;;5040351;28;20444;-43
2021/04/30 10:49:05;;;;;;;16.57;11.23;;;16.20;47.90;;;;;;5042132;28;20494;-42
2021/04/30 10:51:32;;;;;;;14.10;12.47;;;16.20;47.80;;;;;;5050083;28;20197;-43
2021/04/30 10:54:27;;;;;;;12.77;11.50;;;16.10;47.70;;;;;;5046540;28;20527;-42
2021/04/30 10:56:56;;;;;;;14.00;11.57;;;16.10;48.10;;;;;;5046768;28;20894;-41
2021/04/30 10:59:52;;;;;;;14.80;13.30;;;16.00;47.70;;;;;;5049190;28;20494;-42
2021/04/30 11:02:30;;;;;;;14.20;12.80;;;15.80;47.80;;;;;;5048283;28;20431;-43
2021/04/30 11:05:05;;;;;;;14.77;12.43;;;15.60;48.30;;;;;;5045216;28;20439;-41
2021/04/30 11:07:49;;;;;;;13.00;11.37;;;15.30;48.40;;;;;;5039250;28;20809;-42
2021/04/30 11:10:20;;;;;;;14.13;12.60;;;15.10;48.90;;;;;;5043573;28;20907;-41
2021/04/30 11:13:13;;;;;;;14.33;12.90;;;15.30;49.10;;;;;;5050521;28;20815;-41
2021/04/30 11:15:45;;;;;;;19.23;14.57;;;15.20;49.20;;;;;;5049672;28;20455;-41
2021/04/30 11:18:21;;;;;;;16.27;14.17;;;15.30;49.50;;;;;;5050288;28;20447;-41
2021/04/30 11:20:57;;;;;;;16.10;12.57;;;15.30;50.20;;;;;;5034889;28;20440;-41
2021/04/30 11:23:28;;;;;;;15.33;12.87;;;15.60;50.50;;;;;;5043889;28;20430;-40
2021/04/30 11:26:00;;;;;;;14.57;13.20;;;15.80;50.20;;;;;;5040878;28;20553;-40
2021/04/30 11:28:32;;;;;;;16.83;13.10;;;15.90;50.20;;;;;;5047870;28;20478;-40
2021/04/30 11:31:04;;;;;;;9.10;8.17;;;16.10;50.00;;;;;;5044149;28;20443;-41
2021/04/30 11:33:30;;;;;;;12.50;11.20;;;16.00;49.60;;;;;;5040885;28;20807;-40
2021/04/30 11:35:57;;;;;;;11.67;10.47;;;16.00;49.00;;;;;;5050712;28;20521;-40
2021/04/30 11:38:43;;;;;;;13.10;11.23;;;16.00;49.70;;;;;;5049624;28;20431;-40
2021/04/30 11:41:10;;;;;;;12.97;11.67;;;16.00;49.60;;;;;;5043864;28;20443;-40
2021/04/30 11:43:38;;;;;;;10.90;9.57;;;16.10;49.80;;;;;;5045157;28;20513;-40
2021/04/30 11:46:05;;;;;;;13.40;11.27;;;16.10;50.00;;;;;;5049753;28;20509;-40
2021/04/30 11:48:31;;;;;;;15.77;12.83;;;15.90;49.10;;;;;;5044970;28;20515;-40
2021/04/30 11:50:59;;;;;;;13.20;11.90;;;15.80;49.50;;;;;;5044717;28;20438;-40
2021/04/30 11:53:25;;;;;;;13.87;12.47;;;15.90;50.30;;;;;;5050171;28;20525;-40
2021/04/30 11:55:51;;;;;;;7.80;7.10;;;15.90;49.90;;;;;;5050350;28;20895;-40
2021/04/30 11:58:17;;;;;;;9.83;8.87;;;15.80;50.20;;;;;;5050797;28;20513;-40
2021/04/30 12:00:44;;;;;;;15.73;12.33;;;15.80;50.50;;;;;;5052003;28;20432;-41
2021/04/30 12:03:09;;;;;;;14.33;12.70;;;16.10;50.20;;;;;;5046979;28;20200;-40
2021/04/30 12:05:38;;;;;;;13.37;11.50;;;16.10;49.40;;;;;;5043063;28;20480;-40
2021/04/30 12:08:04;;;;;;;12.67;11.37;;;16.00;49.90;;;;;;5047062;28;20275;-40
2021/04/30 12:10:37;;;;;;;14.70;13.20;;;15.70;49.60;;;;;;5051103;28;20530;-40
2021/04/30 12:13:07;;;;;;;15.93;12.40;;;15.50;50.80;;;;;;5032998;28;20943;-40
2021/04/30 12:15:38;;;;;;;13.10;11.07;;;15.10;51.50;;;;;;5040607;28;20490;-40
2021/04/30 12:18:05;;;;;;;14.00;11.97;;;15.00;52.40;;;;;;5047386;28;20553;-40
2021/04/30 12:20:33;;;;;;;13.53;12.10;;;14.90;52.40;;;;;;5051523;28;20423;-40
2021/04/30 12:23:04;;;;;;;13.57;12.20;;;14.80;52.30;;;;;;5048851;28;20442;-40
2021/04/30 12:25:44;;;;;;;13.73;10.70;;;14.80;52.50;;;;;;5049228;28;20987;-40
2021/04/30 12:28:30;;;;;;;16.43;13.57;;;14.70;52.40;;;;;;5050103;28;20490;-40
2021/04/30 12:31:11;;;;;;;14.37;11.80;;;14.60;53.00;;;;;;5047418;28;20617;-40
2021/04/30 12:33:38;;;;;;;13.33;11.90;;;14.50;53.00;;;;;;5043225;28;20629;-39
2021/04/30 12:36:13;;;;;;;13.50;12.00;;;14.60;53.50;;;;;;5042289;28;20490;-40
2021/04/30 12:38:41;;;;;;;13.33;10.57;;;14.60;53.60;;;;;;5043448;28;20427;-40
2021/04/30 12:41:22;;;;;;;13.50;10.40;;;14.50;53.90;;;;;;5048759;28;20436;-40
2021/04/30 12:43:49;;;;;;;12.23;11.03;;;14.50;54.10;;;;;;5047211;28;20665;-40
2021/04/30 12:46:16;;;;;;;12.40;11.17;;;14.40;54.00;;;;;;5045373;28;20435;-39